sensor_id;sensor_type;location;lat;lon;timestamp;P1;durP1;ratioP1;P2;durP2;ratioP2
65377;SDS011;51982;51.042;13.806;2022-12-29T00:02:25;5.07;;;1.45;;
65377;SDS011;51982;51.042;13.806;2022-12-29T00:04:50;2.33;;;1.27;;
65377;SDS011;51982;51.042;13.806;2022-12-29T00:07:16;2.38;;;0.93;;
65377;SDS011;51982;51.042;13.806;2022-12-29T00:09:42;2.80;;;1.40;;
65377;SDS011;51982;51.042;13.806;2022-12-29T00:12:07;3.67;;;1.20;;
65377;SDS011;51982;51.042;13.806;2022-12-29T00:14:32;2.03;;;1.20;;
65377;SDS011;51982;51.042;13.806;2022-12-29T00:17:16;1.52;;;1.10;;
65377;SDS011;51982;51.042;13.806;2022-12-29T00:19:41;2.13;;;1.00;;
65377;SDS011;51982;51.042;13.806;2022-12-29T00:22:25;2.35;;;1.10;;
65377;SDS011;51982;51.042;13.806;2022-12-29T00:25:09;2.30;;;1.20;;
65377;SDS011;51982;51.042;13.806;2022-12-29T00:27:54;1.67;;;1.02;;
65377;SDS011;51982;51.042;13.806;2022-12-29T00:30:38;2.22;;;1.00;;
65377;SDS011;51982;51.042;13.806;2022-12-29T00:33:26;1.48;;;0.88;;
65377;SDS011;51982;51.042;13.806;2022-12-29T00:36:23;1.02;;;0.82;;
65377;SDS011;51982;51.042;13.806;2022-12-29T00:38:57;1.52;;;0.90;;
65377;SDS011;51982;51.042;13.806;2022-12-29T00:41:43;1.52;;;0.80;;
65377;SDS011;51982;51.042;13.806;2022-12-29T00:44:27;4.30;;;0.85;;
65377;SDS011;51982;51.042;13.806;2022-12-29T00:46:53;3.00;;;0.93;;
65377;SDS011;51982;51.042;13.806;2022-12-29T00:49:18;1.52;;;0.88;;
65377;SDS011;51982;51.042;13.806;2022-12-29T00:51:57;1.20;;;0.70;;
65377;SDS011;51982;51.042;13.806;2022-12-29T00:54:25;2.42;;;0.70;;
65377;SDS011;51982;51.042;13.806;2022-12-29T00:56:51;2.40;;;0.73;;
65377;SDS011;51982;51.042;13.806;2022-12-29T00:59:17;1.27;;;0.80;;
65377;SDS011;51982;51.042;13.806;2022-12-29T01:01:44;4.05;;;1.48;;
65377;SDS011;51982;51.042;13.806;2022-12-29T01:04:10;1.33;;;0.93;;
65377;SDS011;51982;51.042;13.806;2022-12-29T01:06:36;2.08;;;0.90;;
65377;SDS011;51982;51.042;13.806;2022-12-29T01:09:03;2.97;;;1.00;;
65377;SDS011;51982;51.042;13.806;2022-12-29T01:11:47;1.90;;;0.95;;
65377;SDS011;51982;51.042;13.806;2022-12-29T01:14:13;1.48;;;0.80;;
65377;SDS011;51982;51.042;13.806;2022-12-29T01:16:38;2.55;;;1.10;;
65377;SDS011;51982;51.042;13.806;2022-12-29T01:19:03;1.90;;;1.13;;
65377;SDS011;51982;51.042;13.806;2022-12-29T01:21:29;1.20;;;0.90;;
65377;SDS011;51982;51.042;13.806;2022-12-29T01:23:54;2.45;;;1.10;;
65377;SDS011;51982;51.042;13.806;2022-12-29T01:26:20;2.00;;;1.20;;
65377;SDS011;51982;51.042;13.806;2022-12-29T01:28:45;1.88;;;1.20;;
65377;SDS011;51982;51.042;13.806;2022-12-29T01:31:11;1.70;;;1.10;;
65377;SDS011;51982;51.042;13.806;2022-12-29T01:33:38;2.85;;;1.27;;
65377;SDS011;51982;51.042;13.806;2022-12-29T01:36:04;2.75;;;1.30;;
65377;SDS011;51982;51.042;13.806;2022-12-29T01:38:32;5.07;;;1.27;;
65377;SDS011;51982;51.042;13.806;2022-12-29T01:40:59;1.83;;;1.20;;
65377;SDS011;51982;51.042;13.806;2022-12-29T01:51:37;2.50;;;1.10;;
65377;SDS011;51982;51.042;13.806;2022-12-29T01:54:07;2.60;;;1.38;;
65377;SDS011;51982;51.042;13.806;2022-12-29T01:56:36;1.75;;;1.23;;
65377;SDS011;51982;51.042;13.806;2022-12-29T01:59:04;2.50;;;1.40;;
65377;SDS011;51982;51.042;13.806;2022-12-29T02:01:33;3.83;;;1.08;;
65377;SDS011;51982;51.042;13.806;2022-12-29T02:03:59;1.77;;;1.20;;
65377;SDS011;51982;51.042;13.806;2022-12-29T02:06:35;1.58;;;1.20;;
65377;SDS011;51982;51.042;13.806;2022-12-29T02:09:05;2.10;;;1.27;;
65377;SDS011;51982;51.042;13.806;2022-12-29T02:11:30;2.77;;;1.40;;
65377;SDS011;51982;51.042;13.806;2022-12-29T02:13:56;3.05;;;1.40;;
65377;SDS011;51982;51.042;13.806;2022-12-29T02:16:29;3.97;;;1.30;;
65377;SDS011;51982;51.042;13.806;2022-12-29T02:22:07;2.47;;;1.25;;
65377;SDS011;51982;51.042;13.806;2022-12-29T02:24:54;2.75;;;1.40;;
65377;SDS011;51982;51.042;13.806;2022-12-29T02:30:42;2.55;;;1.10;;
65377;SDS011;51982;51.042;13.806;2022-12-29T02:33:33;4.22;;;1.00;;
65377;SDS011;51982;51.042;13.806;2022-12-29T02:38:38;3.45;;;1.25;;
65377;SDS011;51982;51.042;13.806;2022-12-29T02:44:01;2.58;;;1.45;;
65377;SDS011;51982;51.042;13.806;2022-12-29T02:46:36;2.00;;;1.27;;
65377;SDS011;51982;51.042;13.806;2022-12-29T02:49:14;3.35;;;1.30;;
65377;SDS011;51982;51.042;13.806;2022-12-29T02:51:46;4.03;;;1.20;;
65377;SDS011;51982;51.042;13.806;2022-12-29T02:57:08;1.90;;;1.20;;
65377;SDS011;51982;51.042;13.806;2022-12-29T02:59:58;1.00;;;0.90;;
65377;SDS011;51982;51.042;13.806;2022-12-29T03:13:28;1.60;;;1.08;;
65377;SDS011;51982;51.042;13.806;2022-12-29T03:16:32;1.50;;;1.05;;
65377;SDS011;51982;51.042;13.806;2022-12-29T03:19:08;1.70;;;1.20;;
65377;SDS011;51982;51.042;13.806;2022-12-29T03:21:43;2.97;;;1.40;;
65377;SDS011;51982;51.042;13.806;2022-12-29T03:24:30;3.60;;;1.55;;
65377;SDS011;51982;51.042;13.806;2022-12-29T03:27:01;2.13;;;1.10;;
65377;SDS011;51982;51.042;13.806;2022-12-29T03:29:29;2.30;;;1.20;;
65377;SDS011;51982;51.042;13.806;2022-12-29T03:31:57;3.08;;;1.17;;
65377;SDS011;51982;51.042;13.806;2022-12-29T03:34:24;1.70;;;1.10;;
65377;SDS011;51982;51.042;13.806;2022-12-29T03:36:52;3.58;;;1.20;;
65377;SDS011;51982;51.042;13.806;2022-12-29T03:39:20;2.28;;;1.20;;
65377;SDS011;51982;51.042;13.806;2022-12-29T03:41:48;1.50;;;1.08;;
65377;SDS011;51982;51.042;13.806;2022-12-29T03:44:16;1.55;;;1.10;;
65377;SDS011;51982;51.042;13.806;2022-12-29T03:46:41;3.25;;;1.50;;
65377;SDS011;51982;51.042;13.806;2022-12-29T03:49:06;1.92;;;1.10;;
65377;SDS011;51982;51.042;13.806;2022-12-29T03:51:32;1.55;;;1.10;;
65377;SDS011;51982;51.042;13.806;2022-12-29T03:53:57;2.00;;;1.13;;
65377;SDS011;51982;51.042;13.806;2022-12-29T03:56:22;1.85;;;1.08;;
65377;SDS011;51982;51.042;13.806;2022-12-29T03:58:47;2.47;;;1.30;;
65377;SDS011;51982;51.042;13.806;2022-12-29T04:01:13;2.10;;;1.00;;
65377;SDS011;51982;51.042;13.806;2022-12-29T04:03:38;2.72;;;1.20;;
65377;SDS011;51982;51.042;13.806;2022-12-29T04:06:03;2.25;;;1.10;;
65377;SDS011;51982;51.042;13.806;2022-12-29T04:08:29;4.05;;;1.08;;
65377;SDS011;51982;51.042;13.806;2022-12-29T04:10:54;1.83;;;1.20;;
65377;SDS011;51982;51.042;13.806;2022-12-29T04:13:19;2.58;;;1.40;;
65377;SDS011;51982;51.042;13.806;2022-12-29T04:15:44;1.47;;;1.20;;
65377;SDS011;51982;51.042;13.806;2022-12-29T04:18:10;2.10;;;1.38;;
65377;SDS011;51982;51.042;13.806;2022-12-29T04:20:36;5.78;;;1.40;;
65377;SDS011;51982;51.042;13.806;2022-12-29T04:23:20;1.58;;;1.05;;
65377;SDS011;51982;51.042;13.806;2022-12-29T04:25:45;1.85;;;1.10;;
65377;SDS011;51982;51.042;13.806;2022-12-29T04:28:15;2.63;;;1.10;;
65377;SDS011;51982;51.042;13.806;2022-12-29T04:30:41;2.08;;;0.98;;
65377;SDS011;51982;51.042;13.806;2022-12-29T04:33:07;5.60;;;1.20;;
65377;SDS011;51982;51.042;13.806;2022-12-29T04:35:33;2.20;;;1.20;;
65377;SDS011;51982;51.042;13.806;2022-12-29T04:37:58;1.70;;;1.10;;
65377;SDS011;51982;51.042;13.806;2022-12-29T04:40:23;1.90;;;1.20;;
65377;SDS011;51982;51.042;13.806;2022-12-29T04:42:49;3.78;;;0.90;;
65377;SDS011;51982;51.042;13.806;2022-12-29T04:45:15;2.88;;;1.25;;
65377;SDS011;51982;51.042;13.806;2022-12-29T04:47:40;5.03;;;1.08;;
65377;SDS011;51982;51.042;13.806;2022-12-29T04:50:06;1.90;;;1.05;;
65377;SDS011;51982;51.042;13.806;2022-12-29T04:52:32;2.72;;;1.13;;
65377;SDS011;51982;51.042;13.806;2022-12-29T04:54:57;3.08;;;1.20;;
65377;SDS011;51982;51.042;13.806;2022-12-29T04:57:22;2.00;;;1.10;;
65377;SDS011;51982;51.042;13.806;2022-12-29T04:59:48;2.03;;;1.10;;
65377;SDS011;51982;51.042;13.806;2022-12-29T05:02:13;2.67;;;1.20;;
65377;SDS011;51982;51.042;13.806;2022-12-29T05:04:38;2.28;;;1.02;;
65377;SDS011;51982;51.042;13.806;2022-12-29T05:07:03;1.87;;;1.03;;
65377;SDS011;51982;51.042;13.806;2022-12-29T05:09:29;1.63;;;0.90;;
65377;SDS011;51982;51.042;13.806;2022-12-29T05:11:54;1.52;;;1.02;;
65377;SDS011;51982;51.042;13.806;2022-12-29T05:14:20;1.42;;;0.90;;
65377;SDS011;51982;51.042;13.806;2022-12-29T05:16:45;2.00;;;1.13;;
65377;SDS011;51982;51.042;13.806;2022-12-29T05:19:10;2.65;;;0.98;;
65377;SDS011;51982;51.042;13.806;2022-12-29T05:21:35;2.00;;;1.27;;
65377;SDS011;51982;51.042;13.806;2022-12-29T05:24:01;3.00;;;0.90;;
65377;SDS011;51982;51.042;13.806;2022-12-29T05:26:26;2.47;;;1.10;;
65377;SDS011;51982;51.042;13.806;2022-12-29T05:28:51;3.45;;;1.00;;
65377;SDS011;51982;51.042;13.806;2022-12-29T05:31:17;3.08;;;0.93;;
65377;SDS011;51982;51.042;13.806;2022-12-29T05:33:42;1.10;;;1.00;;
65377;SDS011;51982;51.042;13.806;2022-12-29T05:36:07;1.20;;;0.90;;
65377;SDS011;51982;51.042;13.806;2022-12-29T05:38:34;2.92;;;1.00;;
65377;SDS011;51982;51.042;13.806;2022-12-29T05:41:00;1.77;;;1.02;;
65377;SDS011;51982;51.042;13.806;2022-12-29T05:43:25;2.83;;;1.02;;
65377;SDS011;51982;51.042;13.806;2022-12-29T05:45:50;4.22;;;1.05;;
65377;SDS011;51982;51.042;13.806;2022-12-29T05:48:17;2.00;;;1.00;;
65377;SDS011;51982;51.042;13.806;2022-12-29T05:50:46;2.50;;;1.10;;
65377;SDS011;51982;51.042;13.806;2022-12-29T05:53:12;2.58;;;1.05;;
65377;SDS011;51982;51.042;13.806;2022-12-29T05:55:38;3.50;;;0.90;;
65377;SDS011;51982;51.042;13.806;2022-12-29T05:58:03;1.38;;;0.98;;
65377;SDS011;51982;51.042;13.806;2022-12-29T06:00:28;2.63;;;1.00;;
65377;SDS011;51982;51.042;13.806;2022-12-29T06:02:53;2.80;;;1.00;;
65377;SDS011;51982;51.042;13.806;2022-12-29T06:05:19;2.17;;;1.08;;
65377;SDS011;51982;51.042;13.806;2022-12-29T06:07:44;1.70;;;1.13;;
65377;SDS011;51982;51.042;13.806;2022-12-29T06:10:10;2.58;;;1.08;;
65377;SDS011;51982;51.042;13.806;2022-12-29T06:12:35;2.03;;;1.05;;
65377;SDS011;51982;51.042;13.806;2022-12-29T06:15:00;2.73;;;1.10;;
65377;SDS011;51982;51.042;13.806;2022-12-29T06:17:25;1.77;;;0.98;;
65377;SDS011;51982;51.042;13.806;2022-12-29T06:19:51;2.43;;;1.20;;
65377;SDS011;51982;51.042;13.806;2022-12-29T06:22:16;2.15;;;1.05;;
65377;SDS011;51982;51.042;13.806;2022-12-29T06:24:41;1.43;;;1.10;;
65377;SDS011;51982;51.042;13.806;2022-12-29T06:27:06;1.17;;;0.90;;
65377;SDS011;51982;51.042;13.806;2022-12-29T06:29:32;2.70;;;1.13;;
65377;SDS011;51982;51.042;13.806;2022-12-29T06:31:57;3.55;;;0.90;;
65377;SDS011;51982;51.042;13.806;2022-12-29T06:34:26;1.77;;;1.15;;
65377;SDS011;51982;51.042;13.806;2022-12-29T06:36:51;2.05;;;1.10;;
65377;SDS011;51982;51.042;13.806;2022-12-29T06:39:16;1.60;;;1.02;;
65377;SDS011;51982;51.042;13.806;2022-12-29T06:41:42;1.93;;;1.00;;
65377;SDS011;51982;51.042;13.806;2022-12-29T06:44:07;2.03;;;1.20;;
65377;SDS011;51982;51.042;13.806;2022-12-29T06:46:32;3.10;;;1.20;;
65377;SDS011;51982;51.042;13.806;2022-12-29T06:48:57;2.45;;;1.40;;
65377;SDS011;51982;51.042;13.806;2022-12-29T06:51:23;1.88;;;1.33;;
65377;SDS011;51982;51.042;13.806;2022-12-29T06:53:48;3.40;;;1.70;;
65377;SDS011;51982;51.042;13.806;2022-12-29T06:56:13;1.65;;;1.00;;
65377;SDS011;51982;51.042;13.806;2022-12-29T06:58:38;1.83;;;1.10;;
65377;SDS011;51982;51.042;13.806;2022-12-29T07:01:04;1.27;;;1.00;;
65377;SDS011;51982;51.042;13.806;2022-12-29T07:03:29;3.28;;;1.17;;
65377;SDS011;51982;51.042;13.806;2022-12-29T07:05:55;1.10;;;1.00;;
65377;SDS011;51982;51.042;13.806;2022-12-29T07:08:20;1.67;;;1.10;;
65377;SDS011;51982;51.042;13.806;2022-12-29T07:10:45;2.05;;;1.33;;
65377;SDS011;51982;51.042;13.806;2022-12-29T07:13:11;2.35;;;1.30;;
65377;SDS011;51982;51.042;13.806;2022-12-29T07:15:37;2.00;;;1.30;;
65377;SDS011;51982;51.042;13.806;2022-12-29T07:18:02;5.68;;;1.50;;
65377;SDS011;51982;51.042;13.806;2022-12-29T07:20:28;2.85;;;1.17;;
65377;SDS011;51982;51.042;13.806;2022-12-29T07:22:54;2.35;;;1.00;;
65377;SDS011;51982;51.042;13.806;2022-12-29T07:25:19;2.13;;;1.13;;
65377;SDS011;51982;51.042;13.806;2022-12-29T07:27:44;2.10;;;1.13;;
65377;SDS011;51982;51.042;13.806;2022-12-29T07:30:09;1.45;;;1.15;;
65377;SDS011;51982;51.042;13.806;2022-12-29T07:32:35;1.48;;;1.13;;
65377;SDS011;51982;51.042;13.806;2022-12-29T07:35:00;2.17;;;1.10;;
65377;SDS011;51982;51.042;13.806;2022-12-29T07:37:26;2.38;;;1.50;;
65377;SDS011;51982;51.042;13.806;2022-12-29T07:39:51;2.63;;;1.50;;
65377;SDS011;51982;51.042;13.806;2022-12-29T07:42:16;4.03;;;1.37;;
65377;SDS011;51982;51.042;13.806;2022-12-29T07:44:42;2.17;;;1.30;;
65377;SDS011;51982;51.042;13.806;2022-12-29T07:47:07;3.22;;;1.33;;
65377;SDS011;51982;51.042;13.806;2022-12-29T07:49:32;2.15;;;1.50;;
65377;SDS011;51982;51.042;13.806;2022-12-29T07:51:57;1.97;;;1.30;;
65377;SDS011;51982;51.042;13.806;2022-12-29T07:54:23;2.70;;;1.52;;
65377;SDS011;51982;51.042;13.806;2022-12-29T07:56:48;2.45;;;1.40;;
65377;SDS011;51982;51.042;13.806;2022-12-29T07:59:13;3.60;;;1.35;;
65377;SDS011;51982;51.042;13.806;2022-12-29T08:01:39;2.33;;;1.33;;
65377;SDS011;51982;51.042;13.806;2022-12-29T08:04:04;3.80;;;1.55;;
65377;SDS011;51982;51.042;13.806;2022-12-29T08:06:29;2.28;;;1.30;;
65377;SDS011;51982;51.042;13.806;2022-12-29T08:08:55;2.60;;;1.50;;
65377;SDS011;51982;51.042;13.806;2022-12-29T08:11:21;3.20;;;1.75;;
65377;SDS011;51982;51.042;13.806;2022-12-29T08:13:46;2.20;;;1.40;;
65377;SDS011;51982;51.042;13.806;2022-12-29T08:16:12;5.40;;;1.40;;
65377;SDS011;51982;51.042;13.806;2022-12-29T08:18:37;4.20;;;1.30;;
65377;SDS011;51982;51.042;13.806;2022-12-29T08:21:03;3.17;;;1.58;;
65377;SDS011;51982;51.042;13.806;2022-12-29T08:23:28;3.08;;;1.30;;
65377;SDS011;51982;51.042;13.806;2022-12-29T08:26:00;2.70;;;1.50;;
65377;SDS011;51982;51.042;13.806;2022-12-29T08:28:27;2.95;;;1.70;;
65377;SDS011;51982;51.042;13.806;2022-12-29T08:30:52;4.25;;;2.17;;
65377;SDS011;51982;51.042;13.806;2022-12-29T08:33:18;2.67;;;1.70;;
65377;SDS011;51982;51.042;13.806;2022-12-29T08:35:43;2.83;;;1.65;;
65377;SDS011;51982;51.042;13.806;2022-12-29T08:38:09;3.03;;;1.60;;
65377;SDS011;51982;51.042;13.806;2022-12-29T08:40:36;4.13;;;1.92;;
65377;SDS011;51982;51.042;13.806;2022-12-29T08:43:01;3.13;;;1.77;;
65377;SDS011;51982;51.042;13.806;2022-12-29T08:45:26;2.63;;;1.70;;
65377;SDS011;51982;51.042;13.806;2022-12-29T08:47:52;5.93;;;1.35;;
65377;SDS011;51982;51.042;13.806;2022-12-29T08:50:17;3.23;;;1.60;;
65377;SDS011;51982;51.042;13.806;2022-12-29T08:52:42;4.82;;;2.00;;
65377;SDS011;51982;51.042;13.806;2022-12-29T08:55:07;3.47;;;1.60;;
65377;SDS011;51982;51.042;13.806;2022-12-29T08:57:33;4.88;;;1.65;;
65377;SDS011;51982;51.042;13.806;2022-12-29T08:59:58;3.33;;;1.48;;
65377;SDS011;51982;51.042;13.806;2022-12-29T09:02:23;4.05;;;1.52;;
65377;SDS011;51982;51.042;13.806;2022-12-29T09:04:49;2.63;;;1.53;;
65377;SDS011;51982;51.042;13.806;2022-12-29T09:07:14;2.80;;;1.40;;
65377;SDS011;51982;51.042;13.806;2022-12-29T09:09:39;3.03;;;1.50;;
65377;SDS011;51982;51.042;13.806;2022-12-29T09:12:04;2.45;;;1.30;;
65377;SDS011;51982;51.042;13.806;2022-12-29T09:14:30;2.95;;;1.55;;
65377;SDS011;51982;51.042;13.806;2022-12-29T09:16:55;2.53;;;1.00;;
65377;SDS011;51982;51.042;13.806;2022-12-29T09:19:39;2.15;;;1.10;;
65377;SDS011;51982;51.042;13.806;2022-12-29T09:22:04;2.42;;;0.88;;
65377;SDS011;51982;51.042;13.806;2022-12-29T09:24:29;2.75;;;0.65;;
65377;SDS011;51982;51.042;13.806;2022-12-29T09:26:55;3.30;;;1.45;;
65377;SDS011;51982;51.042;13.806;2022-12-29T09:29:21;5.93;;;1.77;;
65377;SDS011;51982;51.042;13.806;2022-12-29T09:31:46;2.60;;;1.63;;
65377;SDS011;51982;51.042;13.806;2022-12-29T09:34:11;3.78;;;1.77;;
65377;SDS011;51982;51.042;13.806;2022-12-29T09:36:37;3.75;;;1.70;;
65377;SDS011;51982;51.042;13.806;2022-12-29T09:39:02;3.00;;;1.73;;
65377;SDS011;51982;51.042;13.806;2022-12-29T09:41:34;4.70;;;2.33;;
65377;SDS011;51982;51.042;13.806;2022-12-29T09:44:19;2.03;;;1.20;;
65377;SDS011;51982;51.042;13.806;2022-12-29T09:46:52;2.65;;;1.45;;
65377;SDS011;51982;51.042;13.806;2022-12-29T09:51:49;3.28;;;1.13;;
65377;SDS011;51982;51.042;13.806;2022-12-29T09:57:17;2.30;;;1.00;;
65377;SDS011;51982;51.042;13.806;2022-12-29T09:59:48;2.30;;;1.20;;
65377;SDS011;51982;51.042;13.806;2022-12-29T10:14:08;1.75;;;1.00;;
65377;SDS011;51982;51.042;13.806;2022-12-29T10:16:51;6.00;;;0.90;;
65377;SDS011;51982;51.042;13.806;2022-12-29T10:22:04;1.33;;;0.80;;
65377;SDS011;51982;51.042;13.806;2022-12-29T10:27:03;0.80;;;0.63;;
65377;SDS011;51982;51.042;13.806;2022-12-29T10:29:36;1.17;;;0.80;;
65377;SDS011;51982;51.042;13.806;2022-12-29T10:32:05;2.33;;;0.70;;
65377;SDS011;51982;51.042;13.806;2022-12-29T10:34:38;0.70;;;0.63;;
65377;SDS011;51982;51.042;13.806;2022-12-29T10:37:12;1.00;;;0.55;;
65377;SDS011;51982;51.042;13.806;2022-12-29T10:39:57;1.10;;;0.90;;
65377;SDS011;51982;51.042;13.806;2022-12-29T10:42:27;5.15;;;0.80;;
65377;SDS011;51982;51.042;13.806;2022-12-29T10:44:58;1.20;;;0.80;;
65377;SDS011;51982;51.042;13.806;2022-12-29T10:47:25;3.10;;;0.88;;
65377;SDS011;51982;51.042;13.806;2022-12-29T10:49:54;1.15;;;0.70;;
65377;SDS011;51982;51.042;13.806;2022-12-29T10:52:20;2.90;;;0.80;;
65377;SDS011;51982;51.042;13.806;2022-12-29T10:54:49;0.73;;;0.70;;
65377;SDS011;51982;51.042;13.806;2022-12-29T10:59:57;0.73;;;0.65;;
65377;SDS011;51982;51.042;13.806;2022-12-29T11:02:48;2.70;;;0.88;;
65377;SDS011;51982;51.042;13.806;2022-12-29T11:05:12;1.42;;;0.70;;
65377;SDS011;51982;51.042;13.806;2022-12-29T11:07:59;2.05;;;0.70;;
65377;SDS011;51982;51.042;13.806;2022-12-29T11:10:35;0.88;;;0.63;;
65377;SDS011;51982;51.042;13.806;2022-12-29T11:13:05;1.13;;;0.80;;
65377;SDS011;51982;51.042;13.806;2022-12-29T11:15:44;0.97;;;0.70;;
65377;SDS011;51982;51.042;13.806;2022-12-29T11:20:48;3.88;;;0.73;;
65377;SDS011;51982;51.042;13.806;2022-12-29T11:23:26;3.50;;;0.80;;
65377;SDS011;51982;51.042;13.806;2022-12-29T11:28:40;0.82;;;0.60;;
65377;SDS011;51982;51.042;13.806;2022-12-29T11:31:06;1.75;;;0.70;;
65377;SDS011;51982;51.042;13.806;2022-12-29T11:33:34;6.15;;;0.70;;
65377;SDS011;51982;51.042;13.806;2022-12-29T11:36:07;5.05;;;0.80;;
65377;SDS011;51982;51.042;13.806;2022-12-29T11:38:39;0.80;;;0.70;;
65377;SDS011;51982;51.042;13.806;2022-12-29T11:41:09;1.85;;;0.90;;
65377;SDS011;51982;51.042;13.806;2022-12-29T11:43:37;1.65;;;0.88;;
65377;SDS011;51982;51.042;13.806;2022-12-29T11:46:04;1.45;;;0.80;;
65377;SDS011;51982;51.042;13.806;2022-12-29T11:48:38;1.95;;;0.85;;
65377;SDS011;51982;51.042;13.806;2022-12-29T11:53:37;2.05;;;1.13;;
65377;SDS011;51982;51.042;13.806;2022-12-29T11:56:12;1.20;;;0.90;;
65377;SDS011;51982;51.042;13.806;2022-12-29T11:58:40;0.90;;;0.82;;
65377;SDS011;51982;51.042;13.806;2022-12-29T12:01:07;1.77;;;0.82;;
65377;SDS011;51982;51.042;13.806;2022-12-29T12:03:42;1.45;;;0.90;;
65377;SDS011;51982;51.042;13.806;2022-12-29T12:06:13;1.98;;;0.95;;
65377;SDS011;51982;51.042;13.806;2022-12-29T12:08:45;4.82;;;0.80;;
65377;SDS011;51982;51.042;13.806;2022-12-29T12:11:36;1.73;;;0.98;;
65377;SDS011;51982;51.042;13.806;2022-12-29T12:14:11;1.73;;;0.98;;
65377;SDS011;51982;51.042;13.806;2022-12-29T12:16:43;2.75;;;1.05;;
65377;SDS011;51982;51.042;13.806;2022-12-29T12:27:00;2.05;;;0.88;;
65377;SDS011;51982;51.042;13.806;2022-12-29T12:29:46;1.58;;;1.00;;
65377;SDS011;51982;51.042;13.806;2022-12-29T12:32:19;1.13;;;0.75;;
65377;SDS011;51982;51.042;13.806;2022-12-29T12:34:48;1.73;;;0.60;;
65377;SDS011;51982;51.042;13.806;2022-12-29T12:40:15;2.50;;;0.90;;
65377;SDS011;51982;51.042;13.806;2022-12-29T12:43:05;2.05;;;0.88;;
65377;SDS011;51982;51.042;13.806;2022-12-29T12:45:52;2.10;;;0.88;;
65377;SDS011;51982;51.042;13.806;2022-12-29T12:53:50;1.08;;;0.93;;
65377;SDS011;51982;51.042;13.806;2022-12-29T12:56:31;2.95;;;0.90;;
65377;SDS011;51982;51.042;13.806;2022-12-29T12:59:15;2.83;;;1.15;;
65377;SDS011;51982;51.042;13.806;2022-12-29T13:01:59;2.97;;;1.23;;
65377;SDS011;51982;51.042;13.806;2022-12-29T13:07:17;3.75;;;1.30;;
65377;SDS011;51982;51.042;13.806;2022-12-29T13:15:44;1.92;;;0.77;;
65377;SDS011;51982;51.042;13.806;2022-12-29T13:18:26;2.13;;;0.95;;
65377;SDS011;51982;51.042;13.806;2022-12-29T13:21:00;1.00;;;0.80;;
65377;SDS011;51982;51.042;13.806;2022-12-29T13:23:46;2.45;;;0.98;;
65377;SDS011;51982;51.042;13.806;2022-12-29T13:26:42;2.00;;;1.00;;
65377;SDS011;51982;51.042;13.806;2022-12-29T13:29:15;2.60;;;1.20;;
65377;SDS011;51982;51.042;13.806;2022-12-29T13:31:51;3.20;;;1.00;;
65377;SDS011;51982;51.042;13.806;2022-12-29T13:34:31;1.40;;;0.80;;
65377;SDS011;51982;51.042;13.806;2022-12-29T13:37:04;3.35;;;0.95;;
65377;SDS011;51982;51.042;13.806;2022-12-29T13:39:43;1.80;;;0.90;;
65377;SDS011;51982;51.042;13.806;2022-12-29T13:42:14;3.05;;;0.80;;
65377;SDS011;51982;51.042;13.806;2022-12-29T13:44:44;1.85;;;1.02;;
65377;SDS011;51982;51.042;13.806;2022-12-29T13:47:20;3.30;;;1.00;;
65377;SDS011;51982;51.042;13.806;2022-12-29T13:49:54;2.08;;;0.73;;
65377;SDS011;51982;51.042;13.806;2022-12-29T13:52:31;4.35;;;1.00;;
65377;SDS011;51982;51.042;13.806;2022-12-29T14:01:10;3.58;;;1.08;;
65377;SDS011;51982;51.042;13.806;2022-12-29T14:03:50;2.58;;;0.90;;
65377;SDS011;51982;51.042;13.806;2022-12-29T14:06:29;1.52;;;1.10;;
65377;SDS011;51982;51.042;13.806;2022-12-29T14:08:57;1.38;;;0.90;;
65377;SDS011;51982;51.042;13.806;2022-12-29T14:11:35;1.52;;;1.00;;
65377;SDS011;51982;51.042;13.806;2022-12-29T14:16:47;2.03;;;0.98;;
65377;SDS011;51982;51.042;13.806;2022-12-29T14:19:23;1.77;;;0.93;;
65377;SDS011;51982;51.042;13.806;2022-12-29T14:21:58;1.45;;;0.80;;
65377;SDS011;51982;51.042;13.806;2022-12-29T14:32:09;1.35;;;0.90;;
65377;SDS011;51982;51.042;13.806;2022-12-29T14:34:48;2.15;;;1.08;;
65377;SDS011;51982;51.042;13.806;2022-12-29T14:37:46;1.38;;;1.00;;
65377;SDS011;51982;51.042;13.806;2022-12-29T14:42:44;1.33;;;1.00;;
65377;SDS011;51982;51.042;13.806;2022-12-29T14:47:43;1.83;;;0.90;;
65377;SDS011;51982;51.042;13.806;2022-12-29T14:50:14;4.05;;;1.00;;
65377;SDS011;51982;51.042;13.806;2022-12-29T14:53:01;1.55;;;1.00;;
65377;SDS011;51982;51.042;13.806;2022-12-29T14:55:30;1.85;;;1.13;;
65377;SDS011;51982;51.042;13.806;2022-12-29T14:58:04;2.15;;;0.90;;
65377;SDS011;51982;51.042;13.806;2022-12-29T15:00:32;3.03;;;0.82;;
65377;SDS011;51982;51.042;13.806;2022-12-29T15:03:33;3.22;;;1.20;;
65377;SDS011;51982;51.042;13.806;2022-12-29T15:08:37;3.08;;;1.00;;
65377;SDS011;51982;51.042;13.806;2022-12-29T15:11:12;6.07;;;1.20;;
65377;SDS011;51982;51.042;13.806;2022-12-29T15:13:41;1.40;;;0.88;;
65377;SDS011;51982;51.042;13.806;2022-12-29T15:16:29;3.30;;;1.10;;
65377;SDS011;51982;51.042;13.806;2022-12-29T15:19:00;2.65;;;0.93;;
65377;SDS011;51982;51.042;13.806;2022-12-29T15:21:30;1.13;;;1.00;;
65377;SDS011;51982;51.042;13.806;2022-12-29T15:23:59;1.60;;;0.80;;
65377;SDS011;51982;51.042;13.806;2022-12-29T15:26:41;2.17;;;1.00;;
65377;SDS011;51982;51.042;13.806;2022-12-29T15:29:28;1.73;;;1.10;;
65377;SDS011;51982;51.042;13.806;2022-12-29T15:31:54;2.13;;;1.17;;
65377;SDS011;51982;51.042;13.806;2022-12-29T15:34:25;2.47;;;1.45;;
65377;SDS011;51982;51.042;13.806;2022-12-29T15:36:56;1.50;;;1.15;;
65377;SDS011;51982;51.042;13.806;2022-12-29T15:39:27;7.25;;;1.40;;
65377;SDS011;51982;51.042;13.806;2022-12-29T15:42:06;1.27;;;1.00;;
65377;SDS011;51982;51.042;13.806;2022-12-29T15:44:41;1.85;;;1.20;;
65377;SDS011;51982;51.042;13.806;2022-12-29T15:47:12;1.35;;;1.02;;
65377;SDS011;51982;51.042;13.806;2022-12-29T15:49:42;1.42;;;0.88;;
65377;SDS011;51982;51.042;13.806;2022-12-29T15:52:08;3.05;;;1.10;;
65377;SDS011;51982;51.042;13.806;2022-12-29T15:54:34;1.88;;;1.05;;
65377;SDS011;51982;51.042;13.806;2022-12-29T15:57:00;3.65;;;0.95;;
65377;SDS011;51982;51.042;13.806;2022-12-29T15:59:27;2.40;;;0.70;;
65377;SDS011;51982;51.042;13.806;2022-12-29T16:01:56;1.10;;;0.60;;
65377;SDS011;51982;51.042;13.806;2022-12-29T16:04:23;2.10;;;0.80;;
65377;SDS011;51982;51.042;13.806;2022-12-29T16:06:57;1.00;;;0.70;;
65377;SDS011;51982;51.042;13.806;2022-12-29T16:14:41;1.73;;;0.70;;
65377;SDS011;51982;51.042;13.806;2022-12-29T16:17:11;0.93;;;0.77;;
65377;SDS011;51982;51.042;13.806;2022-12-29T16:19:39;1.55;;;0.90;;
65377;SDS011;51982;51.042;13.806;2022-12-29T16:22:10;1.65;;;0.88;;
65377;SDS011;51982;51.042;13.806;2022-12-29T16:24:38;3.28;;;0.93;;
65377;SDS011;51982;51.042;13.806;2022-12-29T16:29:29;1.87;;;0.80;;
65377;SDS011;51982;51.042;13.806;2022-12-29T16:31:56;0.88;;;0.73;;
65377;SDS011;51982;51.042;13.806;2022-12-29T16:34:28;1.60;;;0.82;;
65377;SDS011;51982;51.042;13.806;2022-12-29T16:36:55;1.52;;;0.80;;
65377;SDS011;51982;51.042;13.806;2022-12-29T16:41:56;2.17;;;1.00;;
65377;SDS011;51982;51.042;13.806;2022-12-29T16:44:25;1.83;;;0.88;;
65377;SDS011;51982;51.042;13.806;2022-12-29T16:46:57;0.88;;;0.65;;
65377;SDS011;51982;51.042;13.806;2022-12-29T16:49:23;1.58;;;0.90;;
65377;SDS011;51982;51.042;13.806;2022-12-29T16:51:49;2.83;;;1.00;;
65377;SDS011;51982;51.042;13.806;2022-12-29T16:54:20;3.70;;;2.20;;
65377;SDS011;51982;51.042;13.806;2022-12-29T16:56:48;1.40;;;1.00;;